Time;durP1;ratioP1;P1;durP2;ratioP2;P2;SDS_P1;SDS_P2;PMS_P1;PMS_P2;Temp;Humidity;BMP_temperature;BMP_pressure;BME280_temperature;BME280_humidity;BME280_pressure;Samples;Min_cycle;Max_cycle;Signal;HPM_P1;HPM_P2
2022/11/24 00:00:19;;;;;;;15.88;7.55;;;;;;;2.92;79.36;100111.09;5069835;28;20055;-65
2022/11/24 00:02:47;;;;;;;15.98;8.55;;;;;;;2.93;81.06;100112.78;5060428;28;20044;-65
2022/11/24 00:05:14;;;;;;;16.17;7.80;;;;;;;2.87;79.44;100109.53;5069078;28;20040;-65
2022/11/24 00:07:40;;;;;;;15.10;7.85;;;;;;;2.69;78.85;100121.31;5058183;28;20059;-64
2022/11/24 00:10:07;;;;;;;16.17;8.40;;;;;;;2.41;78.76;100116.06;5048280;28;20049;-64
2022/11/24 00:12:34;;;;;;;18.77;8.15;;;;;;;2.29;80.49;100116.38;5051132;28;20048;-64
2022/11/24 00:15:00;;;;;;;18.10;9.18;;;;;;;2.46;80.92;100110.75;5049066;28;20044;-64
2022/11/24 00:17:28;;;;;;;17.67;7.90;;;;;;;2.20;83.02;100106.31;5051309;28;20048;-64
2022/11/24 00:19:56;;;;;;;17.60;8.15;;;;;;;1.91;84.44;100107.13;5059308;28;20045;-64
2022/11/24 00:22:22;;;;;;;18.35;9.77;;;;;;;1.76;85.32;100119.59;5050357;28;20508;-64
2022/11/24 00:24:49;;;;;;;17.77;9.27;;;;;;;2.16;84.74;100109.03;5039880;28;20048;-64
2022/11/24 00:27:15;;;;;;;16.88;8.88;;;;;;;2.30;83.55;100101.72;5057058;28;20047;-64
2022/11/24 00:29:42;;;;;;;17.02;8.48;;;;;;;2.15;81.74;100113.34;5082998;27;20044;-64
2022/11/24 00:32:08;;;;;;;16.52;8.85;;;;;;;2.27;81.73;100113.00;5059841;28;20121;-64
2022/11/24 00:34:34;;;;;;;26.02;8.82;;;;;;;2.45;82.13;100111.63;5069361;28;20461;-64
2022/11/24 00:37:02;;;;;;;19.00;9.10;;;;;;;2.41;81.46;100107.44;5069530;28;20540;-65
2022/11/24 00:39:29;;;;;;;16.05;8.15;;;;;;;2.71;80.96;100106.56;5055841;27;20044;-65
2022/11/24 00:41:55;;;;;;;22.38;9.23;;;;;;;2.71;81.06;100113.47;5087286;27;20530;-65
2022/11/24 00:44:22;;;;;;;15.98;8.90;;;;;;;2.64;80.22;100111.97;5057074;28;20054;-65
2022/11/24 00:46:48;;;;;;;14.00;8.20;;;;;;;2.64;81.36;100120.56;5058369;28;20048;-65
2022/11/24 00:49:14;;;;;;;15.77;8.23;;;;;;;2.50;82.25;100125.31;5059343;28;20055;-65
2022/11/24 00:51:41;;;;;;;14.45;8.15;;;;;;;2.83;81.80;100120.88;5049986;28;20052;-65
2022/11/24 00:54:09;;;;;;;16.83;8.85;;;;;;;2.81;81.22;100123.50;5048810;28;20048;-65
2022/11/24 00:56:35;;;;;;;16.75;8.07;;;;;;;2.72;80.68;100121.19;5050248;28;20484;-65
2022/11/24 00:59:02;;;;;;;16.10;7.60;;;;;;;2.81;80.23;100127.81;5048052;28;20044;-65
2022/11/24 01:01:30;;;;;;;15.05;8.05;;;;;;;2.93;80.00;100127.47;5038038;28;20049;-65
2022/11/24 01:03:56;;;;;;;13.40;7.20;;;;;;;2.49;80.08;100133.94;5047118;28;20124;-65
2022/11/24 01:06:25;;;;;;;15.18;8.35;;;;;;;2.83;81.22;100126.06;5047960;28;20056;-65
2022/11/24 01:08:52;;;;;;;12.70;7.60;;;;;;;2.77;82.89;100129.66;5042008;28;20048;-65
2022/11/24 01:11:22;;;;;;;16.38;7.47;;;;;;;2.70;82.95;100135.06;5058265;28;20618;-65
2022/11/24 01:13:51;;;;;;;20.08;8.13;;;;;;;2.79;82.89;100142.56;5048165;28;20052;-65
2022/11/24 01:16:21;;;;;;;18.23;8.75;;;;;;;2.86;82.11;100152.72;5038331;28;20052;-64
2022/11/24 01:18:48;;;;;;;15.98;8.48;;;;;;;3.01;81.55;100158.31;5047860;28;20074;-65
2022/11/24 01:21:15;;;;;;;15.68;7.00;;;;;;;2.75;81.68;100164.25;5047996;28;20417;-65
2022/11/24 01:23:42;;;;;;;15.57;7.35;;;;;;;2.92;81.56;100168.03;5051094;28;21032;-65
2022/11/24 01:26:11;;;;;;;13.75;7.68;;;;;;;3.00;81.32;100170.41;5063185;28;20048;-65
2022/11/24 01:28:39;;;;;;;15.05;8.25;;;;;;;2.99;81.45;100163.56;5064437;28;20056;-65
2022/11/24 01:31:07;;;;;;;13.20;7.80;;;;;;;3.05;80.76;100162.50;5049467;28;20051;-65
2022/11/24 01:33:34;;;;;;;11.40;7.07;;;;;;;2.94;80.60;100173.19;5058586;28;20109;-65
2022/11/24 01:36:01;;;;;;;19.52;6.75;;;;;;;3.07;80.21;100171.09;5058450;28;20049;-65
2022/11/24 01:38:28;;;;;;;15.13;7.50;;;;;;;3.06;79.92;100170.25;5048900;28;20048;-65
2022/11/24 01:41:01;;;;;;;16.75;7.38;;;;;;;3.21;79.77;100164.59;5054145;28;20040;-65
2022/11/24 01:43:27;;;;;;;15.80;7.22;;;;;;;3.03;80.45;100166.91;5037982;28;20131;-65
2022/11/24 01:45:56;;;;;;;13.35;7.72;;;;;;;2.96;80.35;100161.03;5047824;28;20048;-65
2022/11/24 01:48:27;;;;;;;15.77;8.07;;;;;;;3.70;79.39;100163.88;5047225;28;20056;-65
2022/11/24 01:51:03;;;;;;;17.35;7.82;;;;;;;3.06;81.89;100162.47;5050053;27;20055;-65
2022/11/24 01:53:30;;;;;;;13.70;7.53;;;;;;;3.15;81.93;100174.28;5054857;28;20052;-65
2022/11/24 01:55:58;;;;;;;18.63;7.55;;;;;;;3.21;81.77;100171.53;5053268;28;20044;-65
2022/11/24 01:58:29;;;;;;;14.98;7.13;;;;;;;3.08;82.83;100177.94;5071031;28;20051;-65
2022/11/24 02:00:56;;;;;;;17.27;7.47;;;;;;;2.74;82.86;100185.84;5053712;27;20044;-65
2022/11/24 02:03:26;;;;;;;19.55;7.95;;;;;;;2.62;85.24;100186.22;5032160;28;20049;-65
2022/11/24 02:05:58;;;;;;;19.48;9.13;;;;;;;2.59;89.08;100204.44;5031592;28;20045;-65
2022/11/24 02:08:40;;;;;;;19.15;8.70;;;;;;;3.04;87.57;100199.66;5049575;28;20041;-64
2022/11/24 02:11:07;;;;;;;20.42;7.28;;;;;;;3.14;85.06;100188.16;5063119;28;20484;-64
2022/11/24 02:13:35;;;;;;;22.50;8.82;;;;;;;3.05;86.68;100206.53;5056616;28;20053;-65
2022/11/24 02:16:06;;;;;;;15.07;8.13;;;;;;;3.41;86.01;100208.03;5040794;28;20045;-65
2022/11/24 02:18:33;;;;;;;16.92;8.27;;;;;;;3.38;85.18;100197.75;5049832;28;20044;-65
2022/11/24 02:21:00;;;;;;;19.23;8.65;;;;;;;3.76;84.00;100197.41;5051289;28;20044;-65
2022/11/24 02:23:36;;;;;;;19.55;8.32;;;;;;;3.64;83.79;100196.94;5042187;28;20056;-65
2022/11/24 02:26:11;;;;;;;15.30;7.75;;;;;;;3.83;83.40;100201.47;5058799;28;20571;-65
2022/11/24 02:28:39;;;;;;;15.32;7.32;;;;;;;3.90;82.97;100200.38;5062699;28;20389;-65
2022/11/24 02:31:06;;;;;;;13.88;8.18;;;;;;;3.75;83.10;100197.44;5052235;28;20051;-65
2022/11/24 02:33:34;;;;;;;17.20;7.93;;;;;;;3.71;83.54;100214.84;5051333;28;20047;-65
2022/11/24 02:36:00;;;;;;;18.27;8.38;;;;;;;3.97;82.50;100210.53;5040286;27;20040;-65
2022/11/24 02:38:31;;;;;;;15.73;7.95;;;;;;;4.05;81.80;100209.41;5050452;27;20052;-65
2022/11/24 02:41:00;;;;;;;17.52;7.78;;;;;;;3.88;82.08;100215.13;5063282;28;20519;-65
2022/11/24 02:43:32;;;;;;;12.38;7.07;;;;;;;3.95;82.05;100209.75;5061693;28;20036;-65
2022/11/24 02:45:59;;;;;;;16.65;7.95;;;;;;;4.01;82.43;100212.13;5063074;28;20049;-64
2022/11/24 02:48:27;;;;;;;14.38;8.05;;;;;;;4.04;82.19;100210.28;5048330;28;20048;-64
2022/11/24 02:50:53;;;;;;;17.92;7.72;;;;;;;3.93;83.04;100215.84;5050822;28;20049;-64
2022/11/24 02:53:19;;;;;;;15.50;7.57;;;;;;;3.73;83.82;100220.81;5057164;28;20450;-64
2022/11/24 02:55:46;;;;;;;15.30;7.88;;;;;;;3.74;84.36;100216.47;5052574;27;20056;-65
2022/11/24 02:58:13;;;;;;;16.48;7.88;;;;;;;4.07;83.29;100217.09;5043634;28;20060;-65
2022/11/24 03:00:40;;;;;;;16.27;7.75;;;;;;;4.32;82.10;100218.00;5049596;28;20098;-65
2022/11/24 03:03:08;;;;;;;20.33;8.23;;;;;;;4.40;81.99;100222.00;5050538;28;20048;-65
2022/11/24 03:05:34;;;;;;;17.33;7.88;;;;;;;4.29;82.40;100223.28;5045435;28;20049;-64
2022/11/24 03:08:00;;;;;;;16.88;8.40;;;;;;;4.42;82.16;100229.75;5054669;28;20531;-64
2022/11/24 03:10:28;;;;;;;15.18;8.52;;;;;;;4.39;82.28;100224.69;5068224;28;20120;-64
2022/11/24 03:12:54;;;;;;;14.20;7.75;;;;;;;4.37;82.77;100218.66;5061959;28;20040;-64
2022/11/24 03:15:20;;;;;;;13.82;7.38;;;;;;;4.48;81.89;100224.34;5067707;28;20055;-63
2022/11/24 03:17:47;;;;;;;12.98;7.20;;;;;;;4.47;82.26;100235.66;5050311;28;20044;-63
2022/11/24 03:20:15;;;;;;;12.77;7.25;;;;;;;4.52;82.24;100235.47;5054063;28;20056;-62
2022/11/24 03:22:42;;;;;;;17.65;8.10;;;;;;;4.48;82.56;100237.31;5051444;28;20496;-64
2022/11/24 03:25:09;;;;;;;18.05;8.32;;;;;;;4.17;84.65;100228.91;5062425;28;20048;-64
2022/11/24 03:27:35;;;;;;;13.73;7.38;;;;;;;4.40;83.41;100229.78;5061425;28;20044;-64
2022/11/24 03:30:02;;;;;;;18.63;7.68;;;;;;;4.57;82.89;100239.59;5048864;28;20596;-63
2022/11/24 03:32:28;;;;;;;15.50;8.15;;;;;;;4.31;84.01;100237.06;5050533;28;20071;-64
2022/11/24 03:34:55;;;;;;;18.35;8.50;;;;;;;4.08;84.96;100240.44;5039704;28;20044;-64
2022/11/24 03:37:23;;;;;;;15.63;8.20;;;;;;;4.31;85.03;100239.66;5049817;28;20500;-63
2022/11/24 03:39:49;;;;;;;18.33;8.65;;;;;;;4.18;85.45;100235.75;5058042;28;20476;-63
2022/11/24 03:42:16;;;;;;;15.15;8.65;;;;;;;4.41;85.69;100238.44;5056085;28;20083;-63
2022/11/24 03:44:42;;;;;;;17.33;8.60;;;;;;;4.09;86.85;100244.72;5058823;27;20047;-63
2022/11/24 03:47:09;;;;;;;18.02;9.02;;;;;;;3.83;89.28;100236.94;5049972;28;20048;-63
2022/11/24 03:49:36;;;;;;;18.75;9.13;;;;;;;3.85;90.43;100246.34;5039765;28;20057;-63
2022/11/24 03:52:03;;;;;;;20.33;9.40;;;;;;;3.78;91.68;100244.00;5046969;28;20411;-63
2022/11/24 03:54:30;;;;;;;20.13;9.68;;;;;;;4.20;89.22;100250.41;5058756;28;20068;-63
2022/11/24 03:56:57;;;;;;;19.00;9.68;;;;;;;4.13;90.33;100242.88;5042556;28;20063;-63
2022/11/24 03:59:23;;;;;;;22.95;9.02;;;;;;;4.17;90.65;100255.69;5049107;28;20547;-63
2022/11/24 04:01:50;;;;;;;17.02;9.18;;;;;;;4.65;88.76;100247.97;5051204;28;20052;-63
2022/11/24 04:04:16;;;;;;;20.85;9.38;;;;;;;4.69;87.34;100246.13;5039761;28;20504;-63
2022/11/24 04:06:43;;;;;;;20.35;10.23;;;;;;;4.56;87.57;100256.06;5046346;27;20056;-63
2022/11/24 04:09:09;;;;;;;16.67;9.15;;;;;;;3.83;91.59;100248.16;5055372;28;20071;-63
2022/11/24 04:14:21;;;;;;;19.95;8.68;;;;;;;4.74;88.18;100252.84;5062292;28;20129;-63
2022/11/24 04:16:47;;;;;;;21.10;10.75;;;;;;;5.07;87.54;100260.31;5047014;28;20051;-63
2022/11/24 04:19:14;;;;;;;19.35;9.68;;;;;;;5.46;85.63;100248.44;5054270;28;20680;-63
2022/11/24 04:21:40;;;;;;;16.40;8.45;;;;;;;5.65;83.97;100245.97;5051141;28;20465;-63
2022/11/24 04:24:07;;;;;;;21.83;9.52;;;;;;;5.46;84.16;100248.44;5057592;28;20397;-63
2022/11/24 04:26:33;;;;;;;21.20;9.00;;;;;;;4.73;87.37;100253.72;5048482;28;20049;-63
2022/11/24 04:29:01;;;;;;;16.17;9.45;;;;;;;5.28;85.79;100254.34;5047131;28;20044;-63
2022/11/24 04:31:28;;;;;;;15.68;9.05;;;;;;;5.68;83.09;100259.69;5070613;28;20051;-63
2022/11/24 04:33:54;;;;;;;17.40;9.25;;;;;;;5.22;84.99;100275.34;5048723;28;20141;-63
2022/11/24 04:36:20;;;;;;;16.65;9.45;;;;;;;4.72;88.13;100270.22;5047913;28;20563;-63
2022/11/24 04:38:47;;;;;;;20.15;10.32;;;;;;;4.36;91.16;100280.13;5038902;28;20043;-63
2022/11/24 04:41:13;;;;;;;21.42;10.27;;;;;;;4.52;89.76;100277.84;5048384;28;20056;-63
2022/11/24 04:43:40;;;;;;;21.83;10.15;;;;;;;4.72;89.32;100275.44;5047468;28;20052;-63
2022/11/24 04:46:10;;;;;;;19.80;9.23;;;;;;;4.95;88.35;100276.38;5038703;28;20055;-63
2022/11/24 04:48:37;;;;;;;24.30;10.80;;;;;;;4.78;88.95;100283.00;5048224;28;20052;-63
2022/11/24 04:51:04;;;;;;;18.60;9.65;;;;;;;4.97;89.12;100284.94;5066180;28;20044;-65
2022/11/24 04:53:30;;;;;;;17.95;9.18;;;;;;;5.21;87.89;100276.25;5039826;28;20468;-65
2022/11/24 04:55:57;;;;;;;20.00;10.00;;;;;;;4.86;89.87;100283.56;5048461;28;20560;-65
2022/11/24 04:58:23;;;;;;;18.95;10.32;;;;;;;4.75;90.01;100283.09;5046710;28;20492;-65
2022/11/24 05:00:50;;;;;;;26.67;11.85;;;;;;;4.43;92.05;100283.38;5037941;28;20052;-65
2022/11/24 05:03:17;;;;;;;18.90;10.35;;;;;;;4.53;92.22;100287.34;5047761;28;20056;-65
2022/11/24 05:05:44;;;;;;;19.85;10.00;;;;;;;4.93;89.63;100289.41;5046344;28;20049;-65
2022/11/24 05:08:10;;;;;;;18.75;9.85;;;;;;;4.91;91.08;100302.44;5038746;28;20068;-64
2022/11/24 05:10:37;;;;;;;21.92;10.35;;;;;;;4.37;93.01;100305.19;5047041;28;20483;-64
2022/11/24 05:13:05;;;;;;;24.80;11.50;;;;;;;4.35;94.88;100311.34;5046600;28;20677;-64
2022/11/24 05:15:31;;;;;;;21.52;10.63;;;;;;;4.64;92.67;100313.78;5038153;28;20496;-64
2022/11/24 05:17:58;;;;;;;25.50;10.93;;;;;;;4.98;91.13;100318.66;5048231;28;20044;-65
2022/11/24 05:20:26;;;;;;;20.23;11.05;;;;;;;5.05;91.07;100307.16;5047001;28;20049;-64
2022/11/24 05:22:52;;;;;;;20.80;10.73;;;;;;;4.96;90.80;100312.66;5037551;28;20052;-64
2022/11/24 05:25:19;;;;;;;23.30;10.32;;;;;;;4.86;90.93;100319.94;5047788;28;20044;-63
2022/11/24 05:27:45;;;;;;;22.52;9.68;;;;;;;5.36;89.62;100325.06;5046297;28;20044;-63
2022/11/24 05:30:12;;;;;;;29.13;10.88;;;;;;;5.48;88.92;100331.56;5035554;28;20051;-63
2022/11/24 05:32:39;;;;;;;23.10;11.18;;;;;;;5.82;86.85;100334.59;5047501;28;20048;-63
2022/11/24 05:35:08;;;;;;;22.40;10.57;;;;;;;5.17;89.49;100335.31;5045975;28;20068;-63
2022/11/24 05:37:36;;;;;;;22.60;10.63;;;;;;;5.23;89.60;100335.06;5037042;28;20045;-63
2022/11/24 05:40:04;;;;;;;20.92;11.02;;;;;;;5.49;89.89;100333.25;5047027;28;20044;-63
2022/11/24 05:42:42;;;;;;;20.98;10.18;;;;;;;5.78;87.50;100333.84;5046002;28;20701;-63
2022/11/24 05:45:11;;;;;;;20.65;11.05;;;;;;;6.05;86.48;100345.00;5037452;28;20052;-63
2022/11/24 05:47:39;;;;;;;18.13;10.35;;;;;;;6.25;85.60;100338.97;5047048;28;20411;-63
2022/11/24 05:50:06;;;;;;;19.38;10.63;;;;;;;5.99;85.51;100342.59;5047443;28;20053;-63
2022/11/24 05:52:33;;;;;;;17.65;10.48;;;;;;;6.03;85.76;100336.38;5037125;28;20055;-63
2022/11/24 05:55:01;;;;;;;21.52;10.50;;;;;;;5.76;87.08;100340.88;5026620;28;20045;-63
2022/11/24 05:57:28;;;;;;;23.60;10.35;;;;;;;5.98;86.57;100346.13;5028144;28;20497;-63
2022/11/24 05:59:54;;;;;;;21.92;10.27;;;;;;;6.24;85.70;100347.72;5024316;28;20066;-62
2022/11/24 06:02:21;;;;;;;19.02;10.52;;;;;;;6.30;84.89;100356.13;5026940;28;20497;-62
2022/11/24 06:04:47;;;;;;;18.85;10.40;;;;;;;6.40;84.82;100351.38;5028353;28;20510;-63
2022/11/24 06:07:13;;;;;;;25.90;10.93;;;;;;;5.94;85.87;100357.56;5018609;28;20497;-63
2022/11/24 06:09:42;;;;;;;22.05;10.43;;;;;;;5.52;87.96;100362.59;5034643;28;20048;-63
2022/11/24 06:12:12;;;;;;;24.50;10.48;;;;;;;5.64;89.84;100363.91;5042034;28;20049;-63
2022/11/24 06:14:39;;;;;;;20.98;11.07;;;;;;;5.97;87.04;100365.25;5029316;28;20049;-63
2022/11/24 06:17:06;;;;;;;19.88;10.40;;;;;;;6.12;87.12;100359.44;5026544;28;20041;-63
2022/11/24 06:19:32;;;;;;;20.23;10.18;;;;;;;6.01;86.81;100361.63;5020226;28;20045;-63
2022/11/24 06:21:59;;;;;;;21.42;9.77;;;;;;;6.15;86.20;100371.50;5028744;28;21532;-64
2022/11/24 06:24:25;;;;;;;24.30;10.85;;;;;;;6.39;85.88;100367.94;5034798;28;20064;-63
2022/11/24 06:26:52;;;;;;;20.15;11.07;;;;;;;6.41;85.51;100371.31;5043689;27;20045;-63
2022/11/24 06:29:19;;;;;;;20.15;10.90;;;;;;;6.23;86.64;100378.09;5049884;28;20052;-63
2022/11/24 06:31:46;;;;;;;20.10;11.20;;;;;;;5.88;88.77;100376.84;5067314;28;20044;-63
2022/11/24 06:34:13;;;;;;;24.48;10.95;;;;;;;5.68;89.99;100383.69;5067489;28;20047;-66
2022/11/24 06:36:39;;;;;;;20.92;10.40;;;;;;;6.33;87.35;100378.56;5047695;28;20615;-68
2022/11/24 06:39:07;;;;;;;20.30;11.00;;;;;;;6.10;87.75;100376.88;5046009;28;20041;-67
2022/11/24 06:41:33;;;;;;;20.90;11.23;;;;;;;6.44;86.59;100380.75;5046538;28;20048;-67
2022/11/24 06:44:02;;;;;;;26.38;11.50;;;;;;;6.33;86.71;100384.63;5041322;28;20040;-65
2022/11/24 06:46:30;;;;;;;21.30;10.57;;;;;;;6.51;86.38;100387.38;5047380;28;20052;-66
2022/11/24 06:48:58;;;;;;;23.17;10.35;;;;;;;6.52;85.91;100389.09;5042807;28;20143;-67
2022/11/24 06:51:26;;;;;;;23.33;10.10;;;;;;;6.64;85.89;100383.41;5042682;28;20068;-68
2022/11/24 06:53:53;;;;;;;21.98;10.35;;;;;;;6.88;85.11;100397.16;5048318;28;20437;-68
2022/11/24 06:56:20;;;;;;;18.50;9.95;;;;;;;6.71;85.15;100400.47;5039036;28;20485;-69
2022/11/24 06:58:48;;;;;;;17.70;9.75;;;;;;;6.82;85.03;100395.66;5042518;28;20097;-68
2022/11/24 07:01:15;;;;;;;20.70;10.82;;;;;;;6.94;84.40;100389.09;5038696;28;20508;-68
2022/11/24 07:03:43;;;;;;;21.00;10.80;;;;;;;7.01;84.44;100404.41;5039966;28;20503;-66
2022/11/24 07:06:10;;;;;;;23.60;10.38;;;;;;;6.99;84.02;100406.22;5049875;28;20531;-65
2022/11/24 07:08:36;;;;;;;23.38;11.20;;;;;;;7.07;83.65;100403.28;5049319;28;20056;-65
2022/11/24 07:11:07;;;;;;;23.15;11.27;;;;;;;7.08;83.51;100407.59;5037320;28;20040;-65
2022/11/24 07:13:33;;;;;;;24.58;11.27;;;;;;;6.94;83.91;100408.19;5053697;28;20139;-65
2022/11/24 07:16:00;;;;;;;20.80;10.45;;;;;;;6.90;84.13;100422.25;5048733;28;20037;-65
2022/11/24 07:18:26;;;;;;;24.27;11.65;;;;;;;7.10;84.17;100421.41;5032806;28;22588;-63
2022/11/24 07:20:54;;;;;;;24.10;10.98;;;;;;;7.25;83.53;100423.34;5044406;28;20138;-63
2022/11/24 07:23:21;;;;;;;24.83;10.88;;;;;;;7.18;83.13;100429.75;5048401;28;20055;-63
2022/11/24 07:25:47;;;;;;;23.83;11.27;;;;;;;7.12;83.34;100416.97;5038133;28;20416;-62
2022/11/24 07:28:14;;;;;;;22.30;10.93;;;;;;;7.63;80.88;100429.50;5049807;28;20625;-62
2022/11/24 07:30:40;;;;;;;21.35;11.15;;;;;;;7.18;83.15;100421.91;5047985;28;20436;-63
2022/11/24 07:33:06;;;;;;;21.77;10.40;;;;;;;7.11;83.37;100423.09;5039969;28;20400;-63
2022/11/24 07:35:33;;;;;;;20.67;10.02;;;;;;;6.97;84.54;100425.44;5048750;28;20055;-63
2022/11/24 07:38:01;;;;;;;28.58;11.95;;;;;;;6.45;87.43;100440.59;5048239;28;20047;-63
2022/11/24 07:40:27;;;;;;;28.75;11.57;;;;;;;6.22;88.55;100451.03;5038289;28;20056;-63
2022/11/24 07:42:54;;;;;;;31.38;12.90;;;;;;;6.54;88.18;100445.41;5048772;28;20067;-63
2022/11/24 07:45:20;;;;;;;32.80;11.80;;;;;;;5.98;89.61;100460.66;5048373;28;20044;-63
2022/11/24 07:47:47;;;;;;;30.75;12.60;;;;;;;5.46;92.74;100456.44;5037911;28;20408;-64
2022/11/24 07:50:13;;;;;;;26.20;11.98;;;;;;;6.22;91.10;100449.28;5049194;28;20105;-64
2022/11/24 07:52:40;;;;;;;30.15;13.60;;;;;;;6.37;89.31;100450.47;5048750;28;20048;-64
2022/11/24 07:55:09;;;;;;;30.08;13.13;;;;;;;6.66;88.05;100460.56;5041662;28;20056;-63
2022/11/24 07:57:36;;;;;;;33.38;15.05;;;;;;;6.21;89.94;100465.81;5049182;28;20507;-64
2022/11/24 08:00:04;;;;;;;31.65;14.30;;;;;;;5.77;93.84;100462.22;5048559;28;20036;-64
2022/11/24 08:02:30;;;;;;;34.00;14.20;;;;;;;5.59;94.11;100459.44;5038084;28;20053;-63
2022/11/24 08:04:57;;;;;;;31.27;13.07;;;;;;;6.09;92.96;100462.84;5049575;28;20047;-63
2022/11/24 08:07:23;;;;;;;32.67;13.88;;;;;;;6.27;92.29;100470.81;5048084;28;20057;-64
2022/11/24 08:09:51;;;;;;;30.52;13.73;;;;;;;6.28;91.83;100472.47;5038189;28;20041;-64
2022/11/24 08:12:20;;;;;;;34.75;13.75;;;;;;;6.66;90.25;100468.38;5047896;28;20814;-64
2022/11/24 08:14:49;;;;;;;30.55;14.13;;;;;;;6.54;91.04;100468.03;5047570;28;20117;-64
2022/11/24 08:17:15;;;;;;;37.17;14.40;;;;;;;6.84;89.17;100472.84;5037821;28;20076;-64
2022/11/24 08:19:42;;;;;;;25.77;13.52;;;;;;;6.81;89.26;100470.38;5048187;28;20063;-63
2022/11/24 08:22:08;;;;;;;29.63;13.90;;;;;;;6.55;90.95;100467.97;5048177;28;20048;-63
2022/11/24 08:24:35;;;;;;;30.20;13.98;;;;;;;6.43;92.07;100471.03;5038412;28;20052;-64
2022/11/24 08:27:01;;;;;;;32.35;12.93;;;;;;;5.84;95.01;100468.91;5048008;28;20044;-64
2022/11/24 08:29:30;;;;;;;28.40;12.57;;;;;;;6.29;94.71;100481.16;5046797;28;20056;-64
2022/11/24 08:31:57;;;;;;;28.77;12.55;;;;;;;6.75;92.26;100482.81;5037826;28;20045;-64
2022/11/24 08:34:23;;;;;;;27.42;11.82;;;;;;;7.14;89.83;100475.09;5047278;28;20068;-64
2022/11/24 08:36:50;;;;;;;27.88;11.95;;;;;;;7.17;89.44;100477.59;5046313;28;20143;-64
2022/11/24 08:39:17;;;;;;;27.55;12.27;;;;;;;7.36;89.04;100481.13;5037548;28;20524;-64
2022/11/24 08:41:44;;;;;;;23.42;11.93;;;;;;;7.34;89.17;100491.63;5048223;28;20400;-64
2022/11/24 08:44:13;;;;;;;22.38;12.20;;;;;;;7.68;87.76;100491.03;5046483;28;20493;-64
2022/11/24 08:46:41;;;;;;;31.30;12.38;;;;;;;7.77;86.99;100489.75;5037912;28;20072;-64
2022/11/24 08:49:08;;;;;;;29.50;12.43;;;;;;;8.06;86.24;100481.47;5060938;28;20052;-63
2022/11/24 08:51:35;;;;;;;26.23;12.68;;;;;;;7.88;85.52;100491.91;5047251;28;20135;-65
2022/11/24 08:54:02;;;;;;;26.45;11.90;;;;;;;7.60;87.81;100502.72;5038089;28;20531;-64
2022/11/24 08:56:30;;;;;;;27.25;10.98;;;;;;;7.62;87.11;100491.28;5047535;28;20051;-64
2022/11/24 08:58:57;;;;;;;27.50;11.80;;;;;;;7.37;89.35;100506.28;5046879;28;20052;-64
2022/11/24 09:01:24;;;;;;;21.35;11.18;;;;;;;7.11;90.19;100496.09;5042095;28;20040;-64
2022/11/24 09:03:53;;;;;;;26.48;11.45;;;;;;;6.99;91.31;100501.81;5063620;28;20047;-63
2022/11/24 09:06:22;;;;;;;25.20;11.60;;;;;;;7.05;92.01;100501.59;5058424;28;20056;-64
2022/11/24 09:08:48;;;;;;;35.85;11.43;;;;;;;6.46;95.10;100503.94;5039880;28;20380;-64
2022/11/24 09:11:16;;;;;;;27.83;12.25;;;;;;;6.39;96.04;100505.09;5058827;28;20450;-64
2022/11/24 09:13:43;;;;;;;26.33;11.98;;;;;;;6.49;96.17;100507.28;5067023;28;20047;-64
2022/11/24 09:16:12;;;;;;;23.58;11.32;;;;;;;6.56;95.05;100507.88;5052328;28;20044;-64
2022/11/24 09:18:39;;;;;;;24.88;12.07;;;;;;;6.47;96.79;100516.91;5056537;28;20048;-64
2022/11/24 09:21:08;;;;;;;24.95;10.63;;;;;;;6.70;95.65;100514.25;5048890;28;20044;-64
2022/11/24 09:23:34;;;;;;;29.60;11.25;;;;;;;6.82;95.28;100513.78;5037338;28;20056;-64
2022/11/24 09:26:04;;;;;;;21.88;9.82;;;;;;;6.60;96.05;100520.75;5046280;28;20472;-64
2022/11/24 09:28:31;;;;;;;23.65;10.30;;;;;;;7.11;94.68;100509.13;5045944;28;20044;-64
2022/11/24 09:31:00;;;;;;;24.27;11.15;;;;;;;7.58;91.64;100523.63;5035701;28;20048;-64
2022/11/24 09:33:27;;;;;;;25.08;12.20;;;;;;;6.97;93.78;100516.69;5046179;28;20075;-64
2022/11/24 09:35:53;;;;;;;25.23;10.00;;;;;;;7.27;93.03;100520.63;5047363;28;20089;-64
2022/11/24 09:38:21;;;;;;;24.42;10.70;;;;;;;7.76;91.49;100520.22;5040769;28;20045;-64
2022/11/24 09:40:48;;;;;;;24.83;9.60;;;;;;;8.25;88.77;100518.06;5057880;28;20072;-64
2022/11/24 09:43:23;;;;;;;26.17;10.52;;;;;;;8.44;87.91;100539.84;5055576;28;20051;-64
2022/11/24 09:45:55;;;;;;;28.27;11.30;;;;;;;8.05;88.67;100536.41;5047537;28;20048;-64
2022/11/24 09:48:27;;;;;;;23.15;9.82;;;;;;;7.80;90.63;100539.22;5046719;28;20045;-64
2022/11/24 09:50:56;;;;;;;22.45;10.52;;;;;;;8.23;90.13;100535.56;5036779;28;20424;-64
2022/11/24 09:53:30;;;;;;;21.08;10.02;;;;;;;7.88;91.62;100538.88;5046691;28;20044;-64
2022/11/24 09:56:00;;;;;;;21.70;9.50;;;;;;;7.99;91.71;100537.50;5031879;28;20571;-63
2022/11/24 09:58:38;;;;;;;20.10;9.48;;;;;;;8.15;89.29;100537.69;5027543;28;20531;-63
2022/11/24 10:01:12;;;;;;;19.00;9.20;;;;;;;8.33;88.76;100536.88;5027004;28;20045;-63
2022/11/24 10:03:42;;;;;;;25.70;9.60;;;;;;;8.62;88.20;100540.75;5007443;28;20064;-63
2022/11/24 10:06:20;;;;;;;19.20;9.00;;;;;;;8.69;87.04;100544.78;5007080;28;20141;-64
2022/11/24 10:09:03;;;;;;;19.17;10.15;;;;;;;8.26;89.28;100545.88;5008941;28;20234;-64
2022/11/24 10:11:34;;;;;;;;;;;;;;;8.79;88.03;100549.50;5039052;28;20044;-64
2022/11/24 10:14:28;;;;;;;16.83;8.35;;;;;;;8.30;89.38;100552.69;5037332;28;19927;-64
2022/11/24 10:17:02;;;;;;;24.00;10.23;;;;;;;8.87;87.69;100559.59;5022012;28;20068;-64
2022/11/24 10:19:38;;;;;;;19.48;8.77;;;;;;;9.00;86.51;100552.88;5032583;28;20440;-64
2022/11/24 10:22:24;;;;;;;29.20;10.73;;;;;;;9.11;86.84;100550.56;5067198;28;20064;-64
2022/11/24 10:25:07;;;;;;;22.48;9.60;;;;;;;9.37;85.81;100549.31;5047461;28;20040;-64
2022/11/24 10:27:36;;;;;;;;;;;;;;;9.12;86.02;100559.28;5039993;28;20101;-64
2022/11/24 10:30:11;;;;;;;21.63;9.38;;;;;;;8.77;87.26;100567.03;5048787;28;19920;-64
2022/11/24 10:32:43;;;;;;;26.42;9.73;;;;;;;8.62;88.63;100564.28;5042977;28;20468;-63
2022/11/24 10:35:15;;;;;;;23.98;9.30;;;;;;;8.65;88.12;100562.38;5050250;28;20506;-64
2022/11/24 10:37:49;;;;;;;21.63;9.10;;;;;;;8.36;89.50;100568.09;5050762;28;20411;-64
2022/11/24 10:40:23;;;;;;;23.98;9.50;;;;;;;8.64;89.26;100563.31;5040454;28;20051;-64
2022/11/24 10:42:51;;;;;;;25.38;9.35;;;;;;;8.65;89.01;100569.34;5030020;28;20052;-63
2022/11/24 10:45:21;;;;;;;21.92;8.75;;;;;;;8.77;87.76;100564.41;5038085;28;20554;-63
2022/11/24 10:47:48;;;;;;;19.92;8.32;;;;;;;8.91;88.74;100570.75;5049703;28;20048;-63
2022/11/24 10:50:21;;;;;;;19.70;8.55;;;;;;;8.73;88.82;100562.84;5049633;28;20138;-63
2022/11/24 10:52:55;;;;;;;22.38;8.23;;;;;;;8.75;87.95;100560.19;5040627;28;20752;-63
2022/11/24 10:55:22;;;;;;;19.75;8.77;;;;;;;8.50;89.12;100562.25;5048996;28;20454;-63
2022/11/24 10:57:49;;;;;;;23.05;8.63;;;;;;;9.02;88.09;100560.63;5049098;28;20170;-63
2022/11/24 11:00:31;;;;;;;22.75;8.65;;;;;;;9.53;85.69;100554.63;5047246;28;20057;-63
2022/11/24 11:03:11;;;;;;;20.00;8.93;;;;;;;9.71;85.65;100557.16;5050801;28;20045;-63
2022/11/24 11:05:41;;;;;;;28.17;11.13;;;;;;;9.81;84.13;100554.06;5048294;28;20051;-63
2022/11/24 11:08:21;;;;;;;28.83;11.55;;;;;;;9.89;84.62;100557.97;5049276;28;20507;-63
2022/11/24 11:10:50;;;;;;;22.33;11.95;;;;;;;10.21;82.46;100551.94;5048269;28;20048;-63
2022/11/24 11:13:26;;;;;;;22.20;10.55;;;;;;;10.48;81.62;100551.38;5047981;28;20488;-63
2022/11/24 11:15:53;;;;;;;25.55;10.52;;;;;;;10.35;81.73;100561.66;5039439;28;20041;-63
2022/11/24 11:18:20;;;;;;;21.23;9.05;;;;;;;10.33;83.21;100562.69;5048418;28;20057;-63
2022/11/24 11:20:52;;;;;;;23.38;9.73;;;;;;;10.27;82.61;100555.16;5049137;28;20062;-63
2022/11/24 11:23:26;;;;;;;21.75;8.65;;;;;;;10.29;82.28;100559.38;5039774;28;20052;-63
2022/11/24 11:26:22;;;;;;;22.40;8.15;;;;;;;9.93;84.04;100563.91;5048975;28;20464;-63
2022/11/24 11:28:59;;;;;;;18.45;7.90;;;;;;;10.27;83.87;100570.88;5047262;28;20045;-63